Terminal Aerodrome Forecast
Issued by NWS

Home | Current Version | Previous Version | Text Only | Print | Product List | Glossary On
Versions: 1 2 3 4 5 6 7 8 9 10 11 12 13 14 15 16 17 18 19 20 21 22 23 24 25 26 27 28 29 30 31 32 33 34
000
FTAK31 PAFA 311129
TAFAUN
TAF
PAUN 311129Z 3112/0112 14008KT P6SM SCT013 OVC023
     FM311600 12006KT P6SM FEW013 SCT023
     FM312000 08008KT P6SM FEW023
     FM010200 08014KT P6SM SKC=

USA.gov is the U.S. government's official web portal to all federal, state and local government web resources and services.